createdAt,value
2022-11-12T00:00:50.994Z,8.42
2022-11-12T00:01:51.085Z,8.37
2022-11-12T00:02:50.968Z,8.40
2022-11-12T00:03:50.963Z,8.44
2022-11-12T00:04:50.947Z,8.28
2022-11-12T00:05:50.942Z,8.28
2022-11-12T00:06:50.967Z,8.21
2022-11-12T00:07:50.912Z,8.21
2022-11-12T00:08:50.907Z,8.21
2022-11-12T00:09:50.891Z,8.28
2022-11-12T00:10:51.003Z,8.20
2022-11-12T00:11:50.906Z,8.26
2022-11-12T00:12:50.864Z,8.17
2022-11-12T00:13:50.870Z,8.17
2022-11-12T00:14:50.831Z,8.12
2022-11-12T00:15:50.834Z,8.08
2022-11-12T00:16:50.830Z,8.10
2022-11-12T00:17:50.799Z,8.08
2022-11-12T00:18:50.790Z,8.07
2022-11-12T00:19:50.782Z,7.94
2022-11-12T00:20:50.785Z,7.94
2022-11-12T00:21:50.829Z,7.97
2022-11-12T00:22:50.749Z,7.92
2022-11-12T00:23:50.743Z,7.93
2022-11-12T00:24:50.724Z,7.90
2022-11-12T00:25:50.719Z,7.93
2022-11-12T00:26:50.831Z,7.97
2022-11-12T00:27:50.698Z,7.87
2022-11-12T00:28:50.683Z,7.96
2022-11-12T00:29:50.686Z,7.89
2022-11-12T00:30:50.653Z,7.96
2022-11-12T00:31:50.660Z,7.97
2022-11-12T00:32:50.639Z,7.90
2022-11-12T00:33:50.633Z,7.96
2022-11-12T00:34:50.616Z,7.96
2022-11-12T00:35:50.605Z,7.90
2022-11-12T00:36:50.612Z,8.00
2022-11-12T00:37:50.575Z,8.00
2022-11-12T00:38:50.566Z,7.93
2022-11-12T00:39:50.554Z,7.93
2022-11-12T00:40:50.554Z,7.92
2022-11-12T00:41:50.563Z,7.87
2022-11-12T00:42:50.638Z,7.97
2022-11-12T00:43:50.508Z,7.89
2022-11-12T00:44:50.505Z,7.89
2022-11-12T00:45:50.485Z,8.00
2022-11-12T00:46:50.491Z,7.92
2022-11-12T00:47:50.470Z,7.93
2022-11-12T00:48:50.462Z,7.89
2022-11-12T00:49:50.447Z,7.87
2022-11-12T00:50:50.434Z,8.03
2022-11-12T00:51:50.441Z,7.93
2022-11-12T00:52:50.413Z,7.87
2022-11-12T00:53:50.393Z,7.93
2022-11-12T00:54:50.393Z,7.84
2022-11-12T00:55:50.373Z,7.90
2022-11-12T00:56:50.376Z,7.85
2022-11-12T00:57:50.358Z,7.85
2022-11-12T00:58:50.464Z,7.89
2022-11-12T00:59:50.339Z,7.90
2022-11-12T01:00:50.336Z,7.84
2022-11-12T01:01:50.325Z,7.81
2022-11-12T01:02:51.295Z,7.75
2022-11-12T01:03:50.359Z,7.82
2022-11-12T01:04:50.279Z,7.82
2022-11-12T01:05:50.272Z,7.89
2022-11-12T01:06:50.339Z,7.84
2022-11-12T01:07:55.657Z,7.90
2022-11-12T01:08:51.232Z,7.84
2022-11-12T01:09:50.216Z,7.79
2022-11-12T01:10:50.209Z,7.78
2022-11-12T01:11:50.213Z,7.84
2022-11-12T01:12:50.196Z,7.77
2022-11-12T01:13:50.177Z,7.85
2022-11-12T01:14:50.286Z,7.82
2022-11-12T01:15:50.164Z,7.77
2022-11-12T01:16:50.155Z,7.79
2022-11-12T01:17:50.131Z,7.78
2022-11-12T01:18:50.125Z,7.77
2022-11-12T01:19:50.111Z,7.75
2022-11-12T01:20:50.112Z,7.82
2022-11-12T01:21:50.102Z,7.75
2022-11-12T01:22:50.071Z,7.78
2022-11-12T01:23:50.066Z,7.79
2022-11-12T01:24:50.051Z,7.81
2022-11-12T01:25:50.050Z,7.74
2022-11-12T01:26:50.041Z,7.78
2022-11-12T01:27:50.013Z,7.78
2022-11-12T01:28:50.010Z,7.72
2022-11-12T01:29:50.008Z,7.81
2022-11-12T01:30:50.131Z,7.78
2022-11-12T01:31:49.985Z,7.71
2022-11-12T01:32:49.966Z,7.77
2022-11-12T01:33:49.953Z,7.63
2022-11-12T01:34:49.943Z,7.75
2022-11-12T01:35:49.949Z,7.63
2022-11-12T01:36:49.927Z,7.69
2022-11-12T01:37:50.881Z,7.67
2022-11-12T01:38:49.895Z,7.79
2022-11-12T01:39:49.889Z,7.67
2022-11-12T01:40:49.879Z,7.62
2022-11-12T01:41:49.885Z,7.77
2022-11-12T01:42:49.856Z,7.75
2022-11-12T01:43:49.835Z,7.63
2022-11-12T01:44:49.824Z,7.69
2022-11-12T01:45:49.813Z,7.56
2022-11-12T01:46:49.945Z,7.63
2022-11-12T01:47:49.792Z,7.52
2022-11-12T01:48:49.781Z,7.55
2022-11-12T01:49:54.086Z,7.71
2022-11-12T01:50:50.766Z,7.58
2022-11-12T01:51:49.770Z,7.59
2022-11-12T01:52:49.748Z,7.67
2022-11-12T01:53:49.757Z,7.63
2022-11-12T01:54:49.718Z,7.66
2022-11-12T01:55:49.701Z,7.60
2022-11-12T01:56:49.707Z,7.60
2022-11-12T01:57:49.712Z,7.58
2022-11-12T01:58:49.686Z,7.63
2022-11-12T01:59:49.658Z,7.62
2022-11-12T02:00:49.671Z,7.58
2022-11-12T02:01:49.656Z,7.60
2022-11-12T02:02:49.760Z,7.56
2022-11-12T02:03:49.621Z,7.78
2022-11-12T02:04:49.603Z,7.62
2022-11-12T02:05:49.610Z,7.62
2022-11-12T02:06:49.637Z,7.63
2022-11-12T02:07:49.576Z,7.60
2022-11-12T02:08:49.562Z,7.66
2022-11-12T02:09:49.562Z,7.67
2022-11-12T02:10:49.550Z,7.66
2022-11-12T02:11:49.545Z,7.74
2022-11-12T02:12:49.518Z,7.71
2022-11-12T02:13:49.518Z,7.71
2022-11-12T02:14:49.494Z,7.66
2022-11-12T02:15:49.474Z,7.77
2022-11-12T02:16:49.485Z,7.67
2022-11-12T02:17:49.459Z,7.72
2022-11-12T02:18:49.559Z,7.71
2022-11-12T02:19:49.443Z,7.59
2022-11-12T02:20:49.435Z,7.77
2022-11-12T02:21:49.438Z,7.72
2022-11-12T02:22:49.405Z,7.74
2022-11-12T02:23:49.384Z,7.69
2022-11-12T02:24:49.380Z,7.67
2022-11-12T02:25:49.372Z,7.60
2022-11-12T02:26:49.377Z,7.60
2022-11-12T02:27:49.347Z,7.63
2022-11-12T02:28:49.337Z,7.72
2022-11-12T02:29:49.320Z,7.62
2022-11-12T02:30:49.307Z,7.60
2022-11-12T02:31:49.320Z,7.72
2022-11-12T02:32:49.297Z,7.52
2022-11-12T02:33:49.286Z,7.58
2022-11-12T02:34:49.381Z,7.55
2022-11-12T02:35:49.258Z,7.55
2022-11-12T02:36:49.262Z,7.59
2022-11-12T02:37:49.242Z,7.55
2022-11-12T02:38:49.216Z,7.50
2022-11-12T02:39:49.214Z,7.49
2022-11-12T02:40:49.197Z,7.55
2022-11-12T02:41:49.204Z,7.49
2022-11-12T02:42:49.180Z,7.49
2022-11-12T02:43:49.171Z,7.45
2022-11-12T02:44:49.177Z,7.56
2022-11-12T02:45:49.143Z,7.49
2022-11-12T02:46:49.154Z,7.50
2022-11-12T02:47:49.115Z,7.41
2022-11-12T02:48:49.104Z,7.47
2022-11-12T02:49:49.093Z,7.52
2022-11-12T02:50:49.199Z,7.32
2022-11-12T02:51:49.098Z,7.31
2022-11-12T02:52:49.073Z,7.42
2022-11-12T02:53:49.063Z,7.26
2022-11-12T02:54:49.039Z,7.44
2022-11-12T02:55:49.035Z,7.40
2022-11-12T02:56:49.051Z,7.50
2022-11-12T02:57:49.009Z,7.34
2022-11-12T02:58:49.002Z,7.38
2022-11-12T02:59:48.992Z,7.41
2022-11-12T03:00:49.032Z,7.37
2022-11-12T03:01:48.987Z,7.38
2022-11-12T03:02:48.982Z,7.41
2022-11-12T03:03:48.943Z,7.31
2022-11-12T03:04:49.749Z,7.37
2022-11-12T03:05:48.920Z,7.34
2022-11-12T03:06:49.117Z,7.37
2022-11-12T03:07:48.901Z,7.35
2022-11-12T03:08:48.888Z,7.26
2022-11-12T03:09:48.869Z,7.29
2022-11-12T03:10:48.863Z,7.38
2022-11-12T03:11:48.869Z,7.32
2022-11-12T03:12:48.845Z,7.34
2022-11-12T03:13:48.829Z,7.34
2022-11-12T03:14:48.825Z,7.31
2022-11-12T03:15:48.836Z,7.34
2022-11-12T03:16:48.810Z,7.26
2022-11-12T03:17:48.784Z,7.31
2022-11-12T03:18:48.768Z,7.27
2022-11-12T03:19:48.759Z,7.29
2022-11-12T03:20:48.749Z,7.19
2022-11-12T03:21:48.758Z,7.24
2022-11-12T03:22:48.840Z,7.26
2022-11-12T03:23:48.718Z,7.29
2022-11-12T03:24:48.707Z,7.24
2022-11-12T03:25:48.715Z,7.15
2022-11-12T03:26:48.713Z,7.34
2022-11-12T03:27:48.668Z,7.32
2022-11-12T03:28:48.659Z,7.17
2022-11-12T03:29:48.672Z,7.23
2022-11-12T03:30:48.635Z,7.24
2022-11-12T03:31:48.631Z,7.17
2022-11-12T03:32:48.651Z,7.23
2022-11-12T03:33:48.608Z,7.17
2022-11-12T03:34:52.897Z,7.24
2022-11-12T03:35:49.584Z,7.17
2022-11-12T03:36:48.577Z,7.09
2022-11-12T03:37:48.562Z,7.05
2022-11-12T03:38:48.665Z,7.08
2022-11-12T03:39:48.549Z,7.20
2022-11-12T03:40:48.529Z,7.17
2022-11-12T03:41:48.518Z,7.13
2022-11-12T03:42:48.511Z,7.05
2022-11-12T03:43:48.496Z,7.08
2022-11-12T03:44:48.494Z,7.15
2022-11-12T03:45:48.471Z,7.02
2022-11-12T03:46:48.469Z,7.09
2022-11-12T03:47:48.449Z,7.05
2022-11-12T03:48:48.438Z,6.98
2022-11-12T03:49:48.437Z,7.07
2022-11-12T03:50:48.419Z,6.99
2022-11-12T03:51:48.398Z,6.86
2022-11-12T03:52:48.392Z,7.01
2022-11-12T03:53:48.383Z,6.91
2022-11-12T03:54:48.516Z,6.97
2022-11-12T03:55:48.364Z,7.01
2022-11-12T03:56:48.344Z,6.95
2022-11-12T03:57:48.342Z,6.91
2022-11-12T03:58:48.329Z,7.02
2022-11-12T03:59:48.312Z,6.98
2022-11-12T04:00:48.352Z,6.91
2022-11-12T04:01:48.304Z,6.97
2022-11-12T04:02:48.279Z,6.86
2022-11-12T04:03:48.276Z,6.99
2022-11-12T04:04:48.253Z,6.97
2022-11-12T04:05:48.251Z,6.99
2022-11-12T04:06:48.271Z,6.76
2022-11-12T04:07:48.227Z,6.90
2022-11-12T04:08:48.212Z,6.87
2022-11-12T04:09:48.194Z,6.97
2022-11-12T04:10:48.320Z,6.99
2022-11-12T04:11:48.179Z,6.95
2022-11-12T04:12:48.179Z,6.99
2022-11-12T04:13:48.154Z,6.95
2022-11-12T04:14:48.145Z,6.72
2022-11-12T04:15:48.164Z,6.89
2022-11-12T04:16:48.124Z,6.80
2022-11-12T04:17:48.106Z,6.80
2022-11-12T04:18:48.098Z,6.83
2022-11-12T04:19:48.096Z,6.77
2022-11-12T04:20:48.099Z,6.71
2022-11-12T04:21:48.070Z,6.72
2022-11-12T04:22:48.063Z,6.81
2022-11-12T04:23:48.043Z,6.86
2022-11-12T04:24:48.035Z,6.86
2022-11-12T04:25:48.034Z,6.89
2022-11-12T04:26:48.127Z,6.87
2022-11-12T04:27:48.002Z,6.90
2022-11-12T04:28:47.991Z,6.73
2022-11-12T04:29:47.981Z,6.81
2022-11-12T04:30:47.982Z,6.76
2022-11-12T04:31:47.955Z,6.83
2022-11-12T04:32:47.947Z,6.80
2022-11-12T04:33:47.929Z,6.79
2022-11-12T04:34:48.018Z,6.86
2022-11-12T04:35:47.925Z,6.76
2022-11-12T04:36:47.896Z,6.69
2022-11-12T04:37:47.894Z,6.71
2022-11-12T04:38:47.886Z,6.76
2022-11-12T04:39:47.866Z,6.72
2022-11-12T04:40:47.865Z,6.76
2022-11-12T04:41:47.841Z,6.69
2022-11-12T04:42:47.953Z,6.68
2022-11-12T04:43:47.816Z,6.63
2022-11-12T04:44:47.805Z,6.73
2022-11-12T04:45:47.809Z,6.71
2022-11-12T04:46:47.785Z,6.54
2022-11-12T04:47:47.779Z,6.61
2022-11-12T04:48:47.763Z,6.69
2022-11-12T04:49:47.748Z,6.58
2022-11-12T04:50:47.754Z,6.51
2022-11-12T04:51:47.729Z,6.59
2022-11-12T04:52:47.732Z,6.53
2022-11-12T04:53:47.711Z,6.61
2022-11-12T04:54:47.689Z,6.50
2022-11-12T04:55:47.693Z,6.54
2022-11-12T04:56:47.666Z,6.47
2022-11-12T04:57:47.662Z,6.48
2022-11-12T04:58:47.765Z,6.50
2022-11-12T04:59:47.643Z,6.59
2022-11-12T05:00:47.662Z,6.58
2022-11-12T05:01:47.620Z,6.50
2022-11-12T05:02:47.609Z,6.47
2022-11-12T05:03:47.594Z,6.50
2022-11-12T05:04:47.599Z,6.44
2022-11-12T05:05:47.593Z,6.40
2022-11-12T05:06:47.622Z,6.40
2022-11-12T05:07:47.544Z,6.46
2022-11-12T05:08:47.541Z,6.44
2022-11-12T05:09:47.532Z,6.38
2022-11-12T05:10:47.661Z,6.48
2022-11-12T05:11:47.503Z,6.35
2022-11-12T05:12:47.496Z,6.38
2022-11-12T05:13:47.479Z,6.26
2022-11-12T05:14:47.586Z,6.30
2022-11-12T05:15:47.483Z,6.25
2022-11-12T05:16:47.450Z,6.30
2022-11-12T05:17:47.433Z,6.21
2022-11-12T05:18:47.428Z,6.32
2022-11-12T05:19:47.409Z,6.32
2022-11-12T05:20:47.424Z,6.22
2022-11-12T05:21:47.397Z,6.21
2022-11-12T05:23:04.499Z,6.33
2022-11-12T05:23:48.371Z,6.16
2022-11-12T05:24:47.359Z,6.29
2022-11-12T05:25:47.368Z,6.25
2022-11-12T05:26:47.338Z,6.16
2022-11-12T05:27:47.318Z,6.21
2022-11-12T05:28:47.323Z,6.40
2022-11-12T05:29:47.298Z,6.35
2022-11-12T05:30:47.421Z,6.16
2022-11-12T05:31:47.276Z,6.29
2022-11-12T05:32:47.266Z,6.30
2022-11-12T05:33:47.270Z,6.14
2022-11-12T05:34:47.423Z,6.14
2022-11-12T05:35:47.246Z,6.13
2022-11-12T05:36:47.230Z,6.28
2022-11-12T05:37:47.219Z,6.25
2022-11-12T05:38:47.207Z,6.16
2022-11-12T05:39:47.196Z,6.19
2022-11-12T05:40:47.198Z,6.18
2022-11-12T05:42:11.265Z,6.14
2022-11-12T05:42:48.154Z,6.19
2022-11-12T05:43:47.150Z,6.19
2022-11-12T05:44:47.160Z,6.00
2022-11-12T05:45:47.136Z,6.06
2022-11-12T05:46:47.221Z,6.13
2022-11-12T05:47:47.104Z,6.06
2022-11-12T05:48:47.091Z,6.10
2022-11-12T05:49:47.083Z,6.11
2022-11-12T05:51:06.606Z,6.18
2022-11-12T05:51:48.051Z,6.04
2022-11-12T05:52:47.048Z,6.16
2022-11-12T05:53:47.039Z,6.18
2022-11-12T05:54:47.031Z,6.16
2022-11-12T05:55:47.029Z,6.11
2022-11-12T05:56:47.014Z,6.16
2022-11-12T05:57:47.003Z,6.13
2022-11-12T05:58:46.980Z,6.11
2022-11-12T05:59:46.967Z,6.09
2022-11-12T06:00:46.981Z,6.14
2022-11-12T06:01:46.954Z,6.18
2022-11-12T06:02:47.155Z,6.01
2022-11-12T06:03:46.923Z,6.10
2022-11-12T06:04:46.906Z,6.06
2022-11-12T06:05:46.935Z,6.09
2022-11-12T06:06:46.943Z,6.06
2022-11-12T06:07:46.870Z,6.04
2022-11-12T06:08:46.862Z,6.10
2022-11-12T06:09:46.856Z,5.96
2022-11-12T06:10:46.875Z,6.00
2022-11-12T06:11:46.841Z,6.00
2022-11-12T06:12:46.821Z,6.03
2022-11-12T06:13:46.813Z,6.04
2022-11-12T06:14:46.807Z,5.95
2022-11-12T06:15:46.824Z,5.98
2022-11-12T06:16:46.779Z,5.93
2022-11-12T06:17:46.771Z,5.93
2022-11-12T06:18:46.867Z,5.96
2022-11-12T06:19:46.771Z,6.03
2022-11-12T06:20:46.754Z,6.09
2022-11-12T06:21:46.723Z,5.91
2022-11-12T06:22:46.714Z,6.01
2022-11-12T06:23:46.704Z,5.92
2022-11-12T06:24:46.684Z,5.93
2022-11-12T06:25:46.688Z,5.91
2022-11-12T06:26:46.664Z,5.96
2022-11-12T06:27:46.650Z,5.88
2022-11-12T06:28:46.746Z,5.93
2022-11-12T06:29:46.629Z,5.91
2022-11-12T06:30:46.640Z,5.77
2022-11-12T06:31:46.602Z,5.93
2022-11-12T06:32:46.592Z,5.88
2022-11-12T06:33:46.602Z,5.89
2022-11-12T06:34:46.716Z,5.93
2022-11-12T06:35:46.586Z,5.88
2022-11-12T06:36:46.563Z,5.85
2022-11-12T06:37:46.536Z,5.83
2022-11-12T06:38:46.536Z,5.82
2022-11-12T06:39:46.523Z,5.78
2022-11-12T06:40:46.524Z,5.86
2022-11-12T06:41:46.488Z,5.75
2022-11-12T06:42:46.515Z,5.82
2022-11-12T06:43:46.476Z,5.81
2022-11-12T06:44:46.517Z,5.78
2022-11-12T06:45:46.463Z,5.89
2022-11-12T06:46:46.434Z,5.78
2022-11-12T06:47:46.487Z,5.92
2022-11-12T06:48:46.416Z,5.86
2022-11-12T06:49:46.400Z,5.77
2022-11-12T06:50:46.525Z,5.83
2022-11-12T06:51:46.376Z,5.81
2022-11-12T06:52:46.378Z,5.81
2022-11-12T06:53:46.367Z,5.89
2022-11-12T06:54:46.344Z,5.81
2022-11-12T06:55:46.359Z,5.82
2022-11-12T06:56:46.333Z,5.86
2022-11-12T06:57:46.329Z,5.85
2022-11-12T06:58:46.304Z,5.83
2022-11-12T06:59:46.292Z,5.91
2022-11-12T07:00:46.308Z,5.83
2022-11-12T07:01:46.304Z,5.85
2022-11-12T07:02:46.261Z,5.86
2022-11-12T07:03:46.242Z,5.91
2022-11-12T07:04:46.233Z,5.83
2022-11-12T07:05:46.239Z,5.83
2022-11-12T07:06:46.427Z,5.83
2022-11-12T07:07:46.205Z,5.88
2022-11-12T07:08:46.195Z,5.85
2022-11-12T07:09:46.175Z,5.91
2022-11-12T07:10:46.175Z,5.89
2022-11-12T07:11:46.166Z,5.93
2022-11-12T07:12:52.004Z,5.83
2022-11-12T07:13:47.130Z,5.89
2022-11-12T07:14:46.127Z,5.93
2022-11-12T07:15:46.117Z,5.89
2022-11-12T07:16:46.121Z,5.85
2022-11-12T07:17:46.096Z,5.85
2022-11-12T07:18:46.094Z,5.77
2022-11-12T07:19:46.073Z,5.91
2022-11-12T07:20:46.059Z,5.86
2022-11-12T07:21:46.053Z,6.00
2022-11-12T07:22:46.156Z,6.00
2022-11-12T07:23:46.034Z,6.04
2022-11-12T07:24:46.014Z,6.13
2022-11-12T07:25:45.996Z,6.13
2022-11-12T07:26:47.647Z,6.28
2022-11-12T07:27:46.002Z,6.35
2022-11-12T07:28:45.967Z,6.43
2022-11-12T07:29:48.655Z,6.62
2022-11-12T07:30:45.972Z,6.61
2022-11-12T07:31:45.950Z,6.68
2022-11-12T07:32:49.592Z,6.73
2022-11-12T07:33:46.927Z,6.91
2022-11-12T07:34:45.893Z,6.95
2022-11-12T07:35:45.883Z,7.01
2022-11-12T07:36:45.893Z,7.13
2022-11-12T07:37:45.860Z,7.09
2022-11-12T07:38:45.967Z,7.13
2022-11-12T07:39:45.839Z,7.16
2022-11-12T07:40:45.837Z,7.24
2022-11-12T07:41:45.844Z,7.40
2022-11-12T07:42:45.811Z,7.41
2022-11-12T07:43:45.793Z,7.60
2022-11-12T07:44:45.790Z,7.52
2022-11-12T07:45:45.778Z,7.60
2022-11-12T07:46:45.783Z,7.63
2022-11-12T07:47:45.755Z,7.78
2022-11-12T07:48:45.753Z,7.75
2022-11-12T07:49:45.741Z,7.84
2022-11-12T07:50:45.724Z,7.87
2022-11-12T07:51:45.719Z,7.94
2022-11-12T07:52:45.698Z,7.81
2022-11-12T07:53:45.701Z,7.92
2022-11-12T07:54:45.791Z,7.94
2022-11-12T07:55:45.662Z,7.87
2022-11-12T07:56:45.671Z,7.92
2022-11-12T07:57:45.643Z,7.87
2022-11-12T07:58:45.630Z,7.89
2022-11-12T07:59:46.437Z,8.02
2022-11-12T08:00:45.695Z,8.08
2022-11-12T08:01:45.724Z,8.04
2022-11-12T08:02:45.582Z,8.03
2022-11-12T08:03:45.576Z,7.99
2022-11-12T08:04:45.562Z,8.04
2022-11-12T08:05:45.552Z,8.08
2022-11-12T08:06:45.746Z,8.00
2022-11-12T08:07:45.696Z,8.17
2022-11-12T08:08:45.519Z,8.07
2022-11-12T08:09:45.509Z,8.07
2022-11-12T08:10:45.603Z,7.99
2022-11-12T08:11:45.511Z,8.10
2022-11-12T08:12:45.481Z,8.00
2022-11-12T08:13:45.465Z,8.07
2022-11-12T08:14:45.449Z,8.18
2022-11-12T08:15:50.974Z,8.14
2022-11-12T08:16:46.435Z,8.21
2022-11-12T08:17:45.418Z,8.14
2022-11-12T08:18:45.401Z,8.17
2022-11-12T08:19:45.388Z,8.28
2022-11-12T08:20:45.387Z,8.22
2022-11-12T08:21:45.383Z,8.21
2022-11-12T08:22:49.235Z,8.26
2022-11-12T08:23:45.380Z,8.22
2022-11-12T08:24:45.334Z,8.22
2022-11-12T08:25:45.330Z,8.32
2022-11-12T08:26:45.449Z,8.14
2022-11-12T08:27:45.299Z,8.21
2022-11-12T08:28:45.290Z,8.15
2022-11-12T08:29:45.275Z,8.17
2022-11-12T08:30:45.273Z,8.17
2022-11-12T08:31:45.273Z,8.17
2022-11-12T08:32:45.254Z,8.26
2022-11-12T08:33:45.234Z,8.26
2022-11-12T08:34:45.218Z,8.26
2022-11-12T08:35:45.229Z,8.36
2022-11-12T08:36:45.206Z,8.26
2022-11-12T08:37:45.187Z,8.32
2022-11-12T08:38:45.185Z,8.33
2022-11-12T08:39:45.194Z,8.26
2022-11-12T08:40:45.161Z,8.36
2022-11-12T08:41:45.162Z,8.26
2022-11-12T08:42:45.244Z,8.40
2022-11-12T08:43:45.137Z,8.44
2022-11-12T08:44:45.107Z,8.42
2022-11-12T08:45:45.104Z,8.44
2022-11-12T08:46:45.110Z,8.45
2022-11-12T08:47:45.078Z,8.57
2022-11-12T08:48:45.064Z,8.58
2022-11-12T08:49:47.980Z,8.62
2022-11-12T08:50:45.041Z,8.68
2022-11-12T08:51:45.045Z,8.73
2022-11-12T08:52:45.021Z,8.73
2022-11-12T08:53:45.007Z,8.68
2022-11-12T08:54:45.007Z,8.68
2022-11-12T08:55:44.991Z,8.66
2022-11-12T08:56:44.993Z,8.81
2022-11-12T08:57:44.965Z,8.79
2022-11-12T08:58:45.071Z,8.93
2022-11-12T08:59:44.946Z,8.84
2022-11-12T09:00:44.933Z,8.87
2022-11-12T09:01:44.966Z,8.96
2022-11-12T09:02:44.913Z,8.97
2022-11-12T09:03:44.908Z,8.94
2022-11-12T09:04:44.904Z,9.02
2022-11-12T09:05:44.879Z,9.02
2022-11-12T09:06:47.664Z,9.04
2022-11-12T09:07:50.754Z,8.97
2022-11-12T09:08:45.840Z,9.05
2022-11-12T09:09:44.841Z,9.10
2022-11-12T09:10:44.819Z,9.13
2022-11-12T09:11:44.829Z,9.12
2022-11-12T09:12:44.800Z,9.20
2022-11-12T09:13:44.834Z,9.13
2022-11-12T09:14:44.894Z,9.18
2022-11-12T09:15:44.769Z,9.34
2022-11-12T09:16:44.776Z,9.27
2022-11-12T09:17:44.752Z,9.38
2022-11-12T09:18:44.736Z,9.39
2022-11-12T09:19:44.719Z,9.38
2022-11-12T09:20:44.711Z,9.34
2022-11-12T09:21:44.713Z,9.43
2022-11-12T09:22:44.692Z,9.46
2022-11-12T09:23:44.685Z,9.48
2022-11-12T09:24:44.668Z,9.58
2022-11-12T09:25:44.648Z,9.58
2022-11-12T09:26:44.657Z,9.64
2022-11-12T09:27:48.457Z,9.70
2022-11-12T09:28:44.641Z,9.70
2022-11-12T09:29:44.610Z,9.83
2022-11-12T09:30:44.715Z,9.83
2022-11-12T09:31:44.609Z,9.73
2022-11-12T09:32:44.580Z,9.82
2022-11-12T09:33:44.563Z,9.99
2022-11-12T09:34:44.549Z,10.06
2022-11-12T09:35:44.535Z,10.10
2022-11-12T09:36:44.553Z,10.24
2022-11-12T09:37:44.513Z,10.32
2022-11-12T09:38:44.510Z,10.47
2022-11-12T09:39:44.494Z,10.58
2022-11-12T09:40:44.479Z,10.44
2022-11-12T09:41:44.537Z,10.52
2022-11-12T09:42:44.464Z,10.47
2022-11-12T09:43:44.446Z,10.65
2022-11-12T09:44:44.450Z,10.63
2022-11-12T09:45:54.999Z,10.74
2022-11-12T09:46:45.551Z,10.74
2022-11-12T09:47:44.409Z,10.89
2022-11-12T09:48:44.404Z,10.96
2022-11-12T09:49:44.394Z,11.06
2022-11-12T09:50:44.399Z,11.20
2022-11-12T09:51:44.393Z,11.25
2022-11-12T09:52:44.355Z,11.32
2022-11-12T09:53:44.678Z,11.46
2022-11-12T09:54:44.338Z,11.43
2022-11-12T09:55:44.317Z,11.57
2022-11-12T09:56:44.338Z,11.64
2022-11-12T09:57:44.289Z,11.82
2022-11-12T09:58:44.277Z,11.80
2022-11-12T09:59:44.269Z,11.90
2022-11-12T10:00:45.177Z,12.02
2022-11-12T10:01:44.342Z,12.06
2022-11-12T10:02:44.347Z,12.19
2022-11-12T10:03:44.228Z,12.23
2022-11-12T10:04:44.218Z,12.30
2022-11-12T10:05:44.198Z,12.41
2022-11-12T10:06:44.281Z,12.56
2022-11-12T10:07:44.185Z,12.59
2022-11-12T10:08:44.166Z,12.75
2022-11-12T10:09:44.158Z,12.71
2022-11-12T10:10:44.145Z,12.81
2022-11-12T10:11:44.159Z,12.64
2022-11-12T10:12:44.126Z,12.70
2022-11-12T10:13:44.109Z,12.84
2022-11-12T10:14:44.110Z,12.85
2022-11-12T10:15:44.088Z,12.85
2022-11-12T10:16:44.095Z,12.88
2022-11-12T10:17:44.062Z,13.02
2022-11-12T10:18:44.180Z,12.88
2022-11-12T10:19:44.046Z,12.88
2022-11-12T10:20:44.039Z,12.78
2022-11-12T10:21:44.081Z,12.77
2022-11-12T10:22:44.015Z,12.95
2022-11-12T10:23:44.000Z,12.93
2022-11-12T10:24:43.993Z,13.06
2022-11-12T10:25:43.979Z,13.20
2022-11-12T10:26:43.985Z,13.36
2022-11-12T10:27:43.954Z,13.25
2022-11-12T10:28:43.943Z,13.33
2022-11-12T10:29:43.930Z,13.33
2022-11-12T10:30:43.924Z,13.37
2022-11-12T10:31:43.925Z,13.46
2022-11-12T10:32:43.903Z,13.47
2022-11-12T10:33:43.886Z,13.41
2022-11-12T10:34:43.991Z,13.52
2022-11-12T10:35:43.860Z,13.40
2022-11-12T10:36:43.880Z,13.41
2022-11-12T10:37:43.851Z,13.47
2022-11-12T10:38:43.836Z,13.44
2022-11-12T10:39:43.822Z,13.44
2022-11-12T10:40:43.823Z,13.51
2022-11-12T10:41:43.795Z,13.44
2022-11-12T10:42:43.806Z,13.49
2022-11-12T10:43:43.772Z,13.51
2022-11-12T10:44:43.767Z,13.58
2022-11-12T10:45:43.752Z,13.59
2022-11-12T10:46:43.762Z,13.52
2022-11-12T10:47:43.752Z,13.65
2022-11-12T10:48:43.726Z,13.65
2022-11-12T10:49:43.718Z,13.61
2022-11-12T10:50:43.812Z,13.62
2022-11-12T10:51:43.691Z,13.59
2022-11-12T10:52:43.706Z,13.61
2022-11-12T10:53:43.664Z,13.74
2022-11-12T10:54:43.661Z,13.89
2022-11-12T10:55:43.639Z,13.94
2022-11-12T10:56:43.624Z,14.02
2022-11-12T10:57:43.634Z,13.96
2022-11-12T10:58:43.601Z,13.92
2022-11-12T10:59:43.596Z,14.06
2022-11-12T11:00:43.585Z,14.10
2022-11-12T11:01:45.897Z,14.14
2022-11-12T11:02:43.577Z,14.21
2022-11-12T11:03:43.570Z,14.25
2022-11-12T11:04:43.548Z,14.49
2022-11-12T11:05:43.527Z,14.53
2022-11-12T11:06:43.701Z,14.57
2022-11-12T11:07:43.538Z,14.65
2022-11-12T11:08:43.495Z,14.69
2022-11-12T11:09:43.485Z,14.65
2022-11-12T11:10:43.466Z,14.67
2022-11-12T11:11:43.455Z,14.65
2022-11-12T11:12:43.470Z,14.80
2022-11-12T11:13:43.430Z,14.80
2022-11-12T11:14:43.431Z,14.74
2022-11-12T11:15:43.418Z,14.80
2022-11-12T11:16:43.406Z,15.02
2022-11-12T11:17:43.422Z,15.01
2022-11-12T11:18:43.381Z,14.95
2022-11-12T11:19:43.370Z,15.03
2022-11-12T11:20:44.054Z,14.99
2022-11-12T11:21:43.580Z,15.09
2022-11-12T11:22:43.465Z,15.06
2022-11-12T11:23:43.333Z,15.17
2022-11-12T11:24:43.315Z,15.12
2022-11-12T11:25:43.308Z,15.20
2022-11-12T11:26:43.294Z,15.20
2022-11-12T11:27:43.290Z,15.35
2022-11-12T11:28:43.268Z,15.28
2022-11-12T11:29:43.260Z,15.23
2022-11-12T11:30:43.263Z,15.23
2022-11-12T11:31:43.242Z,15.30
2022-11-12T11:32:43.226Z,15.36
2022-11-12T11:33:43.215Z,15.39
2022-11-12T11:34:43.202Z,15.36
2022-11-12T11:35:43.209Z,15.39
2022-11-12T11:36:43.176Z,15.48
2022-11-12T11:37:43.162Z,15.54
2022-11-12T11:38:43.273Z,15.64
2022-11-12T11:39:43.142Z,15.67
2022-11-12T11:40:43.154Z,15.64
2022-11-12T11:41:43.116Z,15.70
2022-11-12T11:42:43.120Z,15.66
2022-11-12T11:43:43.168Z,15.64
2022-11-12T11:44:43.086Z,15.70
2022-11-12T11:45:43.089Z,15.49
2022-11-12T11:46:43.064Z,15.56
2022-11-12T11:48:00.075Z,15.43
2022-11-12T11:48:44.042Z,15.38
2022-11-12T11:49:43.048Z,15.38
2022-11-12T11:50:43.042Z,15.39
2022-11-12T11:51:43.015Z,15.42
2022-11-12T11:52:43.001Z,15.48
2022-11-12T11:53:42.992Z,15.67
2022-11-12T11:54:43.185Z,15.60
2022-11-12T11:55:42.986Z,15.61
2022-11-12T11:56:42.958Z,15.74
2022-11-12T11:57:42.944Z,15.64
2022-11-12T11:58:42.939Z,15.68
2022-11-12T11:59:42.927Z,15.76
2022-11-12T12:00:42.935Z,15.88
2022-11-12T12:01:42.903Z,15.99
2022-11-12T12:02:42.897Z,16.00
2022-11-12T12:03:42.944Z,15.88
2022-11-12T12:04:42.892Z,15.96
2022-11-12T12:05:42.864Z,15.93
2022-11-12T12:06:42.967Z,15.84
2022-11-12T12:07:42.835Z,15.78
2022-11-12T12:08:42.824Z,15.82
2022-11-12T12:09:42.805Z,15.92
2022-11-12T12:11:09.484Z,15.89
2022-11-12T12:11:43.801Z,15.81
2022-11-12T12:12:42.779Z,15.60
2022-11-12T12:13:42.771Z,15.59
2022-11-12T12:14:42.769Z,15.54
2022-11-12T12:15:42.758Z,15.46
2022-11-12T12:16:42.733Z,15.64
2022-11-12T12:17:42.714Z,15.63
2022-11-12T12:18:42.703Z,15.67
2022-11-12T12:19:42.696Z,15.76
2022-11-12T12:20:42.694Z,15.82
2022-11-12T12:21:42.676Z,15.84
2022-11-12T12:22:42.661Z,16.00
2022-11-12T12:23:42.660Z,15.99
2022-11-12T12:24:42.642Z,16.03
2022-11-12T12:25:42.641Z,16.01
2022-11-12T12:26:42.732Z,16.00
2022-11-12T12:27:42.609Z,15.97
2022-11-12T12:28:42.596Z,15.96
2022-11-12T12:29:42.582Z,15.96
2022-11-12T12:30:42.579Z,15.96
2022-11-12T12:31:42.562Z,16.03
2022-11-12T12:32:42.549Z,16.11
2022-11-12T12:33:42.544Z,16.07
2022-11-12T12:34:42.530Z,16.20
2022-11-12T12:35:42.538Z,16.11
2022-11-12T12:36:42.503Z,16.20
2022-11-12T12:37:42.492Z,16.23
2022-11-12T12:38:42.482Z,16.26
2022-11-12T12:39:47.671Z,16.34
2022-11-12T12:40:43.476Z,16.35
2022-11-12T12:41:42.442Z,16.33
2022-11-12T12:42:42.543Z,16.31
2022-11-12T12:43:42.423Z,16.42
2022-11-12T12:44:42.432Z,16.27
2022-11-12T12:45:42.414Z,16.33
2022-11-12T12:46:42.389Z,16.31
2022-11-12T12:47:42.372Z,16.44
2022-11-12T12:48:42.368Z,16.58
2022-11-12T12:49:42.361Z,16.85
2022-11-12T12:50:42.344Z,16.99
2022-11-12T12:51:42.351Z,17.17
2022-11-12T12:52:42.317Z,17.38
2022-11-12T12:53:42.331Z,17.48
2022-11-12T12:54:42.294Z,17.67
2022-11-12T12:55:42.286Z,17.84
2022-11-12T12:56:42.286Z,17.70
2022-11-12T12:57:42.260Z,17.95
2022-11-12T12:58:42.369Z,17.99
2022-11-12T12:59:42.235Z,17.92
2022-11-12T13:00:42.278Z,17.87
2022-11-12T13:01:42.232Z,17.91
2022-11-12T13:02:42.210Z,17.66
2022-11-12T13:03:42.204Z,17.63
2022-11-12T13:04:42.191Z,17.62
2022-11-12T13:05:42.176Z,17.59
2022-11-12T13:06:42.209Z,17.54
2022-11-12T13:07:42.150Z,17.62
2022-11-12T13:08:42.131Z,17.51
2022-11-12T13:09:42.140Z,17.48
2022-11-12T13:10:42.119Z,17.51
2022-11-12T13:11:42.116Z,17.55